sensor_id;sensor_type;location;lat;lon;timestamp;pressure;altitude;pressure_sealevel;temperature;humidity
40315;BME280;26021;45.640;11.302;2023-02-11T00:01:25;100684.94;;;-0.83;84.63
40315;BME280;26021;45.640;11.302;2023-02-11T00:03:51;100683.28;;;-0.85;84.92
40315;BME280;26021;45.640;11.302;2023-02-11T00:06:17;100696.44;;;-0.63;81.64
40315;BME280;26021;45.640;11.302;2023-02-11T00:08:43;100688.34;;;-0.81;83.31
40315;BME280;26021;45.640;11.302;2023-02-11T00:11:12;100694.03;;;-0.91;85.83
40315;BME280;26021;45.640;11.302;2023-02-11T00:13:39;100703.69;;;-0.92;86.88
40315;BME280;26021;45.640;11.302;2023-02-11T00:16:08;100672.25;;;-1.17;86.42
40315;BME280;26021;45.640;11.302;2023-02-11T00:18:35;100697.75;;;-0.97;86.37
40315;BME280;26021;45.640;11.302;2023-02-11T00:21:08;100700.13;;;-0.91;85.70
40315;BME280;26021;45.640;11.302;2023-02-11T00:23:35;100704.97;;;-0.80;85.85
40315;BME280;26021;45.640;11.302;2023-02-11T00:26:00;100694.38;;;-1.01;87.58
40315;BME280;26021;45.640;11.302;2023-02-11T00:28:26;100695.19;;;-0.99;87.07
40315;BME280;26021;45.640;11.302;2023-02-11T00:30:55;100699.72;;;-0.80;85.72
40315;BME280;26021;45.640;11.302;2023-02-11T00:33:21;100689.13;;;-1.01;85.88
40315;BME280;26021;45.640;11.302;2023-02-11T00:35:46;100638.91;;;-1.62;90.07
40315;BME280;26021;45.640;11.302;2023-02-11T00:38:12;100703.03;;;-1.20;90.12
40315;BME280;26021;45.640;11.302;2023-02-11T00:40:37;100686.88;;;-1.33;90.21
40315;BME280;26021;45.640;11.302;2023-02-11T00:43:03;100673.66;;;-1.55;90.16
40315;BME280;26021;45.640;11.302;2023-02-11T00:45:28;100709.19;;;-1.21;90.38
40315;BME280;26021;45.640;11.302;2023-02-11T00:47:55;100642.47;;;-1.39;87.36
40315;BME280;26021;45.640;11.302;2023-02-11T00:50:21;100670.19;;;-1.09;85.83
40315;BME280;26021;45.640;11.302;2023-02-11T00:52:47;100690.78;;;-0.98;86.59
40315;BME280;26021;45.640;11.302;2023-02-11T00:55:13;100686.63;;;-1.04;87.17
40315;BME280;26021;45.640;11.302;2023-02-11T00:57:38;100680.00;;;-1.14;88.23
40315;BME280;26021;45.640;11.302;2023-02-11T01:00:05;100675.41;;;-0.85;83.70
40315;BME280;26021;45.640;11.302;2023-02-11T01:02:31;100682.22;;;-1.03;84.30
40315;BME280;26021;45.640;11.302;2023-02-11T01:04:57;100653.59;;;-1.33;87.59
40315;BME280;26021;45.640;11.302;2023-02-11T01:07:24;100681.50;;;-1.07;86.14
40315;BME280;26021;45.640;11.302;2023-02-11T01:09:50;100674.41;;;-1.05;84.02
40315;BME280;26021;45.640;11.302;2023-02-11T01:12:16;100675.75;;;-0.94;84.60
40315;BME280;26021;45.640;11.302;2023-02-11T01:14:42;100671.31;;;-0.92;82.60
40315;BME280;26021;45.640;11.302;2023-02-11T01:17:07;100598.47;;;-1.56;82.48
40315;BME280;26021;45.640;11.302;2023-02-11T01:19:33;100659.94;;;-0.93;79.25
40315;BME280;26021;45.640;11.302;2023-02-11T01:21:58;100668.59;;;-1.13;83.35
40315;BME280;26021;45.640;11.302;2023-02-11T01:24:24;100623.19;;;-1.38;85.63
40315;BME280;26021;45.640;11.302;2023-02-11T01:26:50;100660.84;;;-1.39;86.76
40315;BME280;26021;45.640;11.302;2023-02-11T01:29:15;100675.03;;;-0.98;85.25
40315;BME280;26021;45.640;11.302;2023-02-11T01:31:40;100669.56;;;-1.15;84.85
40315;BME280;26021;45.640;11.302;2023-02-11T01:34:06;100670.31;;;-1.35;86.46
40315;BME280;26021;45.640;11.302;2023-02-11T01:36:31;100667.47;;;-1.29;87.06
40315;BME280;26021;45.640;11.302;2023-02-11T01:38:57;100666.47;;;-1.03;84.74
40315;BME280;26021;45.640;11.302;2023-02-11T01:41:22;100665.81;;;-1.32;86.28
40315;BME280;26021;45.640;11.302;2023-02-11T01:43:48;100659.31;;;-1.45;88.40
40315;BME280;26021;45.640;11.302;2023-02-11T01:46:23;100661.38;;;-1.30;87.87
40315;BME280;26021;45.640;11.302;2023-02-11T01:49:08;100656.56;;;-1.42;88.40
40315;BME280;26021;45.640;11.302;2023-02-11T01:51:42;100589.44;;;-1.47;86.80
40315;BME280;26021;45.640;11.302;2023-02-11T01:54:11;100655.84;;;-1.45;87.14
40315;BME280;26021;45.640;11.302;2023-02-11T01:56:58;100657.84;;;-1.07;86.76
40315;BME280;26021;45.640;11.302;2023-02-11T01:59:49;100658.50;;;-1.23;88.02
40315;BME280;26021;45.640;11.302;2023-02-11T02:02:19;100664.03;;;-1.31;88.14
40315;BME280;26021;45.640;11.302;2023-02-11T02:04:53;100649.72;;;-1.46;89.77
40315;BME280;26021;45.640;11.302;2023-02-11T02:07:38;100665.97;;;-1.13;86.22
40315;BME280;26021;45.640;11.302;2023-02-11T02:10:11;100664.56;;;-1.21;87.99
40315;BME280;26021;45.640;11.302;2023-02-11T02:12:38;100589.81;;;-1.58;87.07
40315;BME280;26021;45.640;11.302;2023-02-11T02:15:24;100661.94;;;-1.21;85.13
40315;BME280;26021;45.640;11.302;2023-02-11T02:18:01;100668.66;;;-1.38;85.63
40315;BME280;26021;45.640;11.302;2023-02-11T02:28:50;100662.41;;;-1.34;90.47
40315;BME280;26021;45.640;11.302;2023-02-11T02:31:38;100657.00;;;-1.54;90.90
40315;BME280;26021;45.640;11.302;2023-02-11T02:34:16;100639.72;;;-1.60;91.28
40315;BME280;26021;45.640;11.302;2023-02-11T02:36:54;100651.59;;;-1.49;91.18
40315;BME280;26021;45.640;11.302;2023-02-11T02:39:27;100651.44;;;-1.45;89.02
40315;BME280;26021;45.640;11.302;2023-02-11T02:41:53;100646.75;;;-1.37;87.60
40315;BME280;26021;45.640;11.302;2023-02-11T02:44:21;100645.84;;;-1.36;88.05
40315;BME280;26021;45.640;11.302;2023-02-11T02:46:46;100633.88;;;-1.43;88.70
40315;BME280;26021;45.640;11.302;2023-02-11T02:49:13;100641.81;;;-1.44;89.09
40315;BME280;26021;45.640;11.302;2023-02-11T02:57:29;100632.34;;;-1.50;92.51
40315;BME280;26021;45.640;11.302;2023-02-11T03:05:58;100557.53;;;-2.07;93.46
40315;BME280;26021;45.640;11.302;2023-02-11T03:11:08;100619.25;;;-1.73;92.83
40315;BME280;26021;45.640;11.302;2023-02-11T03:13:36;100618.94;;;-1.66;92.90
40315;BME280;26021;45.640;11.302;2023-02-11T03:16:25;100617.69;;;-1.79;94.32
40315;BME280;26021;45.640;11.302;2023-02-11T03:18:58;100599.59;;;-2.10;94.07
40315;BME280;26021;45.640;11.302;2023-02-11T03:21:29;100585.94;;;-1.95;94.36
40315;BME280;26021;45.640;11.302;2023-02-11T03:23:59;100603.84;;;-1.59;92.67
40315;BME280;26021;45.640;11.302;2023-02-11T03:26:31;100612.75;;;-1.63;94.20
40315;BME280;26021;45.640;11.302;2023-02-11T03:29:09;100614.28;;;-1.81;95.04
40315;BME280;26021;45.640;11.302;2023-02-11T03:32:06;100551.16;;;-2.25;94.53
40315;BME280;26021;45.640;11.302;2023-02-11T03:34:40;100608.00;;;-2.00;94.21
40315;BME280;26021;45.640;11.302;2023-02-11T03:39:47;100577.22;;;-1.95;94.29
40315;BME280;26021;45.640;11.302;2023-02-11T03:42:15;100578.50;;;-1.60;90.91
40315;BME280;26021;45.640;11.302;2023-02-11T03:45:05;100591.28;;;-1.74;92.79
40315;BME280;26021;45.640;11.302;2023-02-11T03:47:34;100587.00;;;-2.00;95.14
40315;BME280;26021;45.640;11.302;2023-02-11T03:50:03;100563.59;;;-2.05;96.77
40315;BME280;26021;45.640;11.302;2023-02-11T03:52:30;100524.69;;;-2.42;96.59
40315;BME280;26021;45.640;11.302;2023-02-11T03:54:59;100547.06;;;-2.32;96.44
40315;BME280;26021;45.640;11.302;2023-02-11T03:57:28;100592.16;;;-1.97;96.23
40315;BME280;26021;45.640;11.302;2023-02-11T03:59:54;100596.81;;;-1.82;95.54
40315;BME280;26021;45.640;11.302;2023-02-11T04:02:23;100589.53;;;-1.74;93.50
40315;BME280;26021;45.640;11.302;2023-02-11T04:04:49;100403.19;;;-2.86;92.55
40315;BME280;26021;45.640;11.302;2023-02-11T04:07:15;100594.03;;;-2.01;94.41
40315;BME280;26021;45.640;11.302;2023-02-11T04:09:40;100585.44;;;-1.81;93.78
40315;BME280;26021;45.640;11.302;2023-02-11T04:12:06;100569.75;;;-1.82;93.78
40315;BME280;26021;45.640;11.302;2023-02-11T04:14:32;100569.81;;;-1.84;94.03
40315;BME280;26021;45.640;11.302;2023-02-11T04:16:57;100563.25;;;-1.96;95.66
40315;BME280;26021;45.640;11.302;2023-02-11T04:19:23;100582.41;;;-1.94;95.62
40315;BME280;26021;45.640;11.302;2023-02-11T04:21:48;100565.91;;;-1.97;95.36
40315;BME280;26021;45.640;11.302;2023-02-11T04:24:13;100318.78;;;-3.42;94.37
40315;BME280;26021;45.640;11.302;2023-02-11T04:26:39;100560.16;;;-1.83;92.32
40315;BME280;26021;45.640;11.302;2023-02-11T04:29:04;100560.50;;;-1.93;93.56
40315;BME280;26021;45.640;11.302;2023-02-11T04:31:30;100569.16;;;-1.90;93.63
40315;BME280;26021;45.640;11.302;2023-02-11T04:33:55;100566.25;;;-1.83;91.84
40315;BME280;26021;45.640;11.302;2023-02-11T04:36:21;100559.38;;;-1.85;92.28
40315;BME280;26021;45.640;11.302;2023-02-11T04:38:46;100559.59;;;-1.92;92.83
40315;BME280;26021;45.640;11.302;2023-02-11T04:41:12;100570.72;;;-1.85;92.88
40315;BME280;26021;45.640;11.302;2023-02-11T04:43:37;100542.22;;;-1.94;90.50
40315;BME280;26021;45.640;11.302;2023-02-11T04:46:03;100559.03;;;-2.00;92.42
40315;BME280;26021;45.640;11.302;2023-02-11T04:48:28;100563.91;;;-2.14;95.22
40315;BME280;26021;45.640;11.302;2023-02-11T04:50:54;100506.59;;;-2.48;97.72
40315;BME280;26021;45.640;11.302;2023-02-11T04:53:19;100554.34;;;-2.15;95.48
40315;BME280;26021;45.640;11.302;2023-02-11T04:55:48;100554.13;;;-2.09;94.00
40315;BME280;26021;45.640;11.302;2023-02-11T04:58:14;100544.72;;;-1.91;91.70
40315;BME280;26021;45.640;11.302;2023-02-11T05:00:39;100550.34;;;-2.02;91.86
40315;BME280;26021;45.640;11.302;2023-02-11T05:03:04;100542.38;;;-1.99;92.60
40315;BME280;26021;45.640;11.302;2023-02-11T05:05:30;100551.03;;;-1.97;94.10
40315;BME280;26021;45.640;11.302;2023-02-11T05:07:55;100542.84;;;-1.87;91.33
40315;BME280;26021;45.640;11.302;2023-02-11T05:10:21;100531.66;;;-1.93;90.84
40315;BME280;26021;45.640;11.302;2023-02-11T05:12:48;100544.31;;;-2.04;91.77
40315;BME280;26021;45.640;11.302;2023-02-11T05:15:14;100534.00;;;-2.08;92.30
40315;BME280;26021;45.640;11.302;2023-02-11T05:17:39;100557.16;;;-1.96;92.05
40315;BME280;26021;45.640;11.302;2023-02-11T05:20:05;100538.09;;;-1.78;89.99
40315;BME280;26021;45.640;11.302;2023-02-11T05:22:31;100546.81;;;-1.77;89.15
40315;BME280;26021;45.640;11.302;2023-02-11T05:24:56;100543.88;;;-1.92;89.91
40315;BME280;26021;45.640;11.302;2023-02-11T05:27:22;100545.41;;;-1.86;90.93
40315;BME280;26021;45.640;11.302;2023-02-11T05:29:47;100518.44;;;-1.89;89.37
40315;BME280;26021;45.640;11.302;2023-02-11T05:32:13;100466.59;;;-2.30;89.55
40315;BME280;26021;45.640;11.302;2023-02-11T05:34:38;100539.25;;;-2.08;92.78
40315;BME280;26021;45.640;11.302;2023-02-11T05:37:04;100543.34;;;-2.26;94.85
40315;BME280;26021;45.640;11.302;2023-02-11T05:39:30;100539.31;;;-2.10;93.88
40315;BME280;26021;45.640;11.302;2023-02-11T05:41:56;100480.63;;;-2.31;92.06
40315;BME280;26021;45.640;11.302;2023-02-11T05:44:21;100532.91;;;-2.03;92.62
40315;BME280;26021;45.640;11.302;2023-02-11T05:46:47;100530.84;;;-2.18;94.72
40315;BME280;26021;45.640;11.302;2023-02-11T05:49:13;100527.72;;;-2.04;92.50
40315;BME280;26021;45.640;11.302;2023-02-11T05:51:39;100529.66;;;-2.09;92.13
40315;BME280;26021;45.640;11.302;2023-02-11T05:54:04;100479.59;;;-2.50;93.97
40315;BME280;26021;45.640;11.302;2023-02-11T05:56:30;100525.97;;;-2.04;94.73
40315;BME280;26021;45.640;11.302;2023-02-11T05:58:57;100453.38;;;-2.50;94.77
40315;BME280;26021;45.640;11.302;2023-02-11T06:01:24;100518.94;;;-2.03;93.84
40315;BME280;26021;45.640;11.302;2023-02-11T06:03:50;100528.94;;;-2.13;95.93
40315;BME280;26021;45.640;11.302;2023-02-11T06:06:15;100522.72;;;-2.10;95.08
40315;BME280;26021;45.640;11.302;2023-02-11T06:08:41;100531.97;;;-2.25;94.79
40315;BME280;26021;45.640;11.302;2023-02-11T06:11:07;100471.41;;;-2.66;95.19
40315;BME280;26021;45.640;11.302;2023-02-11T06:13:33;100513.31;;;-2.41;96.14
40315;BME280;26021;45.640;11.302;2023-02-11T06:16:00;100505.00;;;-2.29;95.59
40315;BME280;26021;45.640;11.302;2023-02-11T06:18:26;100509.94;;;-2.19;94.31
40315;BME280;26021;45.640;11.302;2023-02-11T06:20:52;100507.72;;;-2.07;93.14
40315;BME280;26021;45.640;11.302;2023-02-11T06:23:17;100515.53;;;-2.05;93.68
40315;BME280;26021;45.640;11.302;2023-02-11T06:25:43;100518.09;;;-2.04;93.94
40315;BME280;26021;45.640;11.302;2023-02-11T06:28:08;100517.97;;;-2.01;93.94
40315;BME280;26021;45.640;11.302;2023-02-11T06:30:38;100524.38;;;-2.08;94.85
40315;BME280;26021;45.640;11.302;2023-02-11T06:33:03;100524.09;;;-2.25;94.94
40315;BME280;26021;45.640;11.302;2023-02-11T06:35:29;100441.19;;;-2.51;94.98
40315;BME280;26021;45.640;11.302;2023-02-11T06:37:55;100519.53;;;-2.18;94.96
40315;BME280;26021;45.640;11.302;2023-02-11T06:40:20;100503.78;;;-2.18;96.35
40315;BME280;26021;45.640;11.302;2023-02-11T06:42:46;100503.50;;;-2.11;96.30
40315;BME280;26021;45.640;11.302;2023-02-11T06:45:12;100495.75;;;-2.14;98.35
40315;BME280;26021;45.640;11.302;2023-02-11T06:47:38;100510.69;;;-2.16;97.93
40315;BME280;26021;45.640;11.302;2023-02-11T06:50:05;100469.72;;;-2.18;97.93
40315;BME280;26021;45.640;11.302;2023-02-11T06:52:32;100510.69;;;-1.93;95.75
40315;BME280;26021;45.640;11.302;2023-02-11T06:54:58;100515.41;;;-2.02;96.76
40315;BME280;26021;45.640;11.302;2023-02-11T06:57:23;100522.31;;;-2.00;97.52
40315;BME280;26021;45.640;11.302;2023-02-11T06:59:48;100522.72;;;-1.87;94.81
40315;BME280;26021;45.640;11.302;2023-02-11T07:02:14;100455.47;;;-2.11;95.43
40315;BME280;26021;45.640;11.302;2023-02-11T07:04:40;100518.34;;;-1.65;93.51
40315;BME280;26021;45.640;11.302;2023-02-11T07:07:05;100465.53;;;-2.01;94.12
40315;BME280;26021;45.640;11.302;2023-02-11T07:09:31;100503.81;;;-1.73;92.81
40315;BME280;26021;45.640;11.302;2023-02-11T07:11:56;100442.41;;;-2.13;93.84
40315;BME280;26021;45.640;11.302;2023-02-11T07:14:22;100529.47;;;-1.58;93.33
40315;BME280;26021;45.640;11.302;2023-02-11T07:16:47;100527.69;;;-1.57;95.78
40315;BME280;26021;45.640;11.302;2023-02-11T07:19:13;100532.09;;;-1.58;94.02
40315;BME280;26021;45.640;11.302;2023-02-11T07:21:38;100536.41;;;-1.34;93.90
40315;BME280;26021;45.640;11.302;2023-02-11T07:24:08;100536.09;;;-1.26;91.79
40315;BME280;26021;45.640;11.302;2023-02-11T07:26:34;100535.00;;;-0.78;85.59
40315;BME280;26021;45.640;11.302;2023-02-11T07:29:00;100528.31;;;-0.45;83.58
40315;BME280;26021;45.640;11.302;2023-02-11T07:31:27;100531.84;;;-0.25;84.21
40315;BME280;26021;45.640;11.302;2023-02-11T07:33:56;100531.94;;;0.12;79.82
40315;BME280;26021;45.640;11.302;2023-02-11T07:36:24;100535.47;;;0.68;75.72
40315;BME280;26021;45.640;11.302;2023-02-11T07:38:50;100535.13;;;0.56;75.85
40315;BME280;26021;45.640;11.302;2023-02-11T07:41:18;100511.03;;;0.47;76.24
40315;BME280;26021;45.640;11.302;2023-02-11T07:43:44;100528.66;;;0.45;76.54
40315;BME280;26021;45.640;11.302;2023-02-11T07:46:22;100538.31;;;0.63;76.68
40315;BME280;26021;45.640;11.302;2023-02-11T07:48:48;100538.00;;;1.24;75.79
40315;BME280;26021;45.640;11.302;2023-02-11T07:51:23;100539.09;;;1.72;72.99
40315;BME280;26021;45.640;11.302;2023-02-11T07:53:49;100533.91;;;2.19;71.16
40315;BME280;26021;45.640;11.302;2023-02-11T07:56:17;100536.53;;;2.36;69.78
40315;BME280;26021;45.640;11.302;2023-02-11T07:58:43;100548.03;;;2.35;69.47
40315;BME280;26021;45.640;11.302;2023-02-11T08:01:11;100513.81;;;1.68;69.14
40315;BME280;26021;45.640;11.302;2023-02-11T08:03:37;100541.78;;;1.87;68.57
40315;BME280;26021;45.640;11.302;2023-02-11T08:06:04;100491.22;;;1.95;68.44
40315;BME280;26021;45.640;11.302;2023-02-11T08:08:30;100538.06;;;2.25;68.87
40315;BME280;26021;45.640;11.302;2023-02-11T08:10:55;100486.38;;;1.87;67.30
40315;BME280;26021;45.640;11.302;2023-02-11T08:13:21;100535.78;;;2.17;66.99
40315;BME280;26021;45.640;11.302;2023-02-11T08:15:46;100504.16;;;2.33;64.77
40315;BME280;26021;45.640;11.302;2023-02-11T08:18:12;100534.75;;;2.37;66.75
40315;BME280;26021;45.640;11.302;2023-02-11T08:20:37;100529.97;;;2.59;63.94
40315;BME280;26021;45.640;11.302;2023-02-11T08:23:05;100535.44;;;2.56;63.50
40315;BME280;26021;45.640;11.302;2023-02-11T08:25:31;100526.91;;;2.67;63.80
40315;BME280;26021;45.640;11.302;2023-02-11T08:27:57;100528.09;;;2.61;64.23
40315;BME280;26021;45.640;11.302;2023-02-11T08:30:22;100519.25;;;2.62;63.70
40315;BME280;26021;45.640;11.302;2023-02-11T08:32:49;100528.00;;;2.78;61.73
40315;BME280;26021;45.640;11.302;2023-02-11T08:35:15;100536.88;;;2.77;61.24
40315;BME280;26021;45.640;11.302;2023-02-11T08:37:40;100521.69;;;2.81;62.03
40315;BME280;26021;45.640;11.302;2023-02-11T08:40:06;100533.66;;;3.48;59.28
40315;BME280;26021;45.640;11.302;2023-02-11T08:42:31;100531.19;;;3.45;59.87
40315;BME280;26021;45.640;11.302;2023-02-11T08:44:57;100523.72;;;3.37;58.73
40315;BME280;26021;45.640;11.302;2023-02-11T08:47:22;100520.19;;;3.67;58.55
40315;BME280;26021;45.640;11.302;2023-02-11T08:49:48;100525.38;;;3.54;59.22
40315;BME280;26021;45.640;11.302;2023-02-11T08:52:13;100517.72;;;3.64;59.00
40315;BME280;26021;45.640;11.302;2023-02-11T08:54:39;100534.47;;;3.64;58.26
40315;BME280;26021;45.640;11.302;2023-02-11T08:57:04;100532.28;;;3.71;58.69
40315;BME280;26021;45.640;11.302;2023-02-11T08:59:30;100528.03;;;3.68;59.19
40315;BME280;26021;45.640;11.302;2023-02-11T09:01:55;100526.47;;;3.80;59.90
40315;BME280;26021;45.640;11.302;2023-02-11T09:04:22;100531.94;;;3.77;59.52
40315;BME280;26021;45.640;11.302;2023-02-11T09:06:47;100525.81;;;4.05;55.97
40315;BME280;26021;45.640;11.302;2023-02-11T09:09:14;100538.09;;;4.20;57.02
40315;BME280;26021;45.640;11.302;2023-02-11T09:11:41;100533.66;;;4.06;56.26
40315;BME280;26021;45.640;11.302;2023-02-11T09:14:09;100527.31;;;4.23;55.84
40315;BME280;26021;45.640;11.302;2023-02-11T09:16:39;100531.97;;;4.05;57.03
40315;BME280;26021;45.640;11.302;2023-02-11T09:19:04;100535.38;;;3.93;59.18
40315;BME280;26021;45.640;11.302;2023-02-11T09:21:30;100533.47;;;3.95;59.22
40315;BME280;26021;45.640;11.302;2023-02-11T09:23:56;100459.91;;;3.58;59.52
40315;BME280;26021;45.640;11.302;2023-02-11T09:26:25;100535.75;;;4.15;57.50
40315;BME280;26021;45.640;11.302;2023-02-11T09:28:52;100537.34;;;4.46;56.47
40315;BME280;26021;45.640;11.302;2023-02-11T09:31:20;100538.13;;;4.75;54.43
40315;BME280;26021;45.640;11.302;2023-02-11T09:33:48;100544.09;;;5.06;51.50
40315;BME280;26021;45.640;11.302;2023-02-11T09:36:19;100547.94;;;5.15;47.97
40315;BME280;26021;45.640;11.302;2023-02-11T09:38:46;100536.00;;;5.22;47.80
40315;BME280;26021;45.640;11.302;2023-02-11T09:44:22;100549.56;;;5.57;46.32
40315;BME280;26021;45.640;11.302;2023-02-11T09:46:59;100507.38;;;5.27;46.59
40315;BME280;26021;45.640;11.302;2023-02-11T09:49:47;100563.59;;;5.71;45.05
40315;BME280;26021;45.640;11.302;2023-02-11T09:53:02;100554.41;;;5.90;45.06
40315;BME280;26021;45.640;11.302;2023-02-11T09:55:33;100550.19;;;6.25;43.85
40315;BME280;26021;45.640;11.302;2023-02-11T09:58:14;100513.81;;;6.26;43.07
40315;BME280;26021;45.640;11.302;2023-02-11T10:00:46;100548.41;;;6.62;42.11
40315;BME280;26021;45.640;11.302;2023-02-11T10:08:18;100535.84;;;6.64;42.08
40315;BME280;26021;45.640;11.302;2023-02-11T10:10:51;100545.31;;;6.68;42.62
40315;BME280;26021;45.640;11.302;2023-02-11T10:21:38;100532.72;;;6.34;43.03
40315;BME280;26021;45.640;11.302;2023-02-11T10:24:10;100506.19;;;6.09;44.10
40315;BME280;26021;45.640;11.302;2023-02-11T10:26:38;100501.84;;;5.95;43.36
40315;BME280;26021;45.640;11.302;2023-02-11T10:29:17;100477.81;;;5.71;43.98
40315;BME280;26021;45.640;11.302;2023-02-11T10:31:46;100532.88;;;6.07;44.33
40315;BME280;26021;45.640;11.302;2023-02-11T10:34:13;100537.44;;;6.05;43.75
40315;BME280;26021;45.640;11.302;2023-02-11T10:36:41;100529.03;;;6.11;44.31
40315;BME280;26021;45.640;11.302;2023-02-11T10:39:24;100530.72;;;6.25;43.27
40315;BME280;26021;45.640;11.302;2023-02-11T10:42:06;100361.47;;;5.27;43.64
40315;BME280;26021;45.640;11.302;2023-02-11T10:44:36;100487.53;;;6.47;42.72
40315;BME280;26021;45.640;11.302;2023-02-11T10:47:10;100512.66;;;7.03;42.38
40315;BME280;26021;45.640;11.302;2023-02-11T10:49:40;100509.41;;;7.11;42.54
40315;BME280;26021;45.640;11.302;2023-02-11T10:52:32;100499.94;;;7.30;41.19
40315;BME280;26021;45.640;11.302;2023-02-11T10:55:17;100495.94;;;7.36;41.50
40315;BME280;26021;45.640;11.302;2023-02-11T10:58:01;100488.53;;;7.63;40.22
40315;BME280;26021;45.640;11.302;2023-02-11T11:02:59;100478.59;;;7.54;39.60
40315;BME280;26021;45.640;11.302;2023-02-11T11:05:33;100352.88;;;6.93;39.62
40315;BME280;26021;45.640;11.302;2023-02-11T11:08:03;100447.06;;;7.37;39.68
40315;BME280;26021;45.640;11.302;2023-02-11T11:10:36;100462.94;;;7.39;40.49
40315;BME280;26021;45.640;11.302;2023-02-11T11:13:27;100452.22;;;7.51;41.61
40315;BME280;26021;45.640;11.302;2023-02-11T11:18:40;100451.84;;;7.45;41.28
40315;BME280;26021;45.640;11.302;2023-02-11T11:23:37;100450.22;;;7.31;40.48
40315;BME280;26021;45.640;11.302;2023-02-11T11:26:12;100444.28;;;7.27;41.40
40315;BME280;26021;45.640;11.302;2023-02-11T11:28:42;100440.00;;;7.14;41.66
40315;BME280;26021;45.640;11.302;2023-02-11T11:31:17;100441.91;;;7.00;42.23
40315;BME280;26021;45.640;11.302;2023-02-11T11:33:44;100425.66;;;6.92;42.01
40315;BME280;26021;45.640;11.302;2023-02-11T11:36:14;100434.59;;;6.91;42.94
40315;BME280;26021;45.640;11.302;2023-02-11T11:38:56;100434.38;;;6.94;43.02
40315;BME280;26021;45.640;11.302;2023-02-11T11:43:58;100429.28;;;7.26;41.43
40315;BME280;26021;45.640;11.302;2023-02-11T11:46:34;100416.94;;;7.25;42.25
40315;BME280;26021;45.640;11.302;2023-02-11T11:49:16;100404.81;;;7.21;42.50
40315;BME280;26021;45.640;11.302;2023-02-11T11:52:16;100347.69;;;7.03;42.28
40315;BME280;26021;45.640;11.302;2023-02-11T11:54:35;100402.72;;;7.49;41.73
40315;BME280;26021;45.640;11.302;2023-02-11T11:57:22;100411.19;;;7.54;41.96
40315;BME280;26021;45.640;11.302;2023-02-11T11:59:50;100412.06;;;7.65;41.87
40315;BME280;26021;45.640;11.302;2023-02-11T12:05:45;100405.88;;;7.87;42.22
40315;BME280;26021;45.640;11.302;2023-02-11T12:08:33;100411.31;;;7.86;42.97
40315;BME280;26021;45.640;11.302;2023-02-11T12:19:24;100393.16;;;8.68;41.98
40315;BME280;26021;45.640;11.302;2023-02-11T12:22:20;100394.50;;;8.62;41.68
40315;BME280;26021;45.640;11.302;2023-02-11T12:36:10;100378.56;;;9.24;41.10
40315;BME280;26021;45.640;11.302;2023-02-11T12:41:43;100379.03;;;9.30;40.18
40315;BME280;26021;45.640;11.302;2023-02-11T12:50:40;100372.25;;;8.52;41.49
40315;BME280;26021;45.640;11.302;2023-02-11T12:55:54;100372.31;;;8.07;42.78
40315;BME280;26021;45.640;11.302;2023-02-11T12:58:25;100384.09;;;7.82;43.36
40315;BME280;26021;45.640;11.302;2023-02-11T13:00:55;100348.16;;;7.54;43.73
40315;BME280;26021;45.640;11.302;2023-02-11T13:03:42;100377.44;;;7.77;43.79
40315;BME280;26021;45.640;11.302;2023-02-11T13:06:36;100216.00;;;6.75;44.20
40315;BME280;26021;45.640;11.302;2023-02-11T13:09:10;100380.66;;;8.14;43.44
40315;BME280;26021;45.640;11.302;2023-02-11T13:11:45;100374.66;;;8.55;43.25
40315;BME280;26021;45.640;11.302;2023-02-11T13:14:28;100379.78;;;8.79;41.71
40315;BME280;26021;45.640;11.302;2023-02-11T13:16:57;100372.47;;;9.13;41.47
40315;BME280;26021;45.640;11.302;2023-02-11T13:19:33;100355.13;;;9.28;41.53
40315;BME280;26021;45.640;11.302;2023-02-11T13:24:50;100375.97;;;9.34;40.86
40315;BME280;26021;45.640;11.302;2023-02-11T13:35:38;100356.38;;;9.24;40.08
40315;BME280;26021;45.640;11.302;2023-02-11T13:38:05;100349.88;;;9.17;40.19
40315;BME280;26021;45.640;11.302;2023-02-11T13:40:41;100358.38;;;9.32;40.76
40315;BME280;26021;45.640;11.302;2023-02-11T13:43:22;100350.19;;;9.23;40.57
40315;BME280;26021;45.640;11.302;2023-02-11T13:45:50;100337.16;;;9.30;40.53
40315;BME280;26021;45.640;11.302;2023-02-11T13:48:27;100335.78;;;9.36;40.80
40315;BME280;26021;45.640;11.302;2023-02-11T13:51:00;100299.56;;;9.12;40.93
40315;BME280;26021;45.640;11.302;2023-02-11T13:53:26;100306.09;;;9.29;40.75
40315;BME280;26021;45.640;11.302;2023-02-11T13:56:05;100178.63;;;8.60;40.63
40315;BME280;26021;45.640;11.302;2023-02-11T13:58:34;100334.81;;;9.37;40.82
40315;BME280;26021;45.640;11.302;2023-02-11T14:01:01;100316.84;;;9.18;41.24
40315;BME280;26021;45.640;11.302;2023-02-11T14:03:29;100286.88;;;9.05;41.33
40315;BME280;26021;45.640;11.302;2023-02-11T14:14:30;100314.31;;;9.47;40.93
40315;BME280;26021;45.640;11.302;2023-02-11T14:19:43;100313.34;;;9.17;40.87
40315;BME280;26021;45.640;11.302;2023-02-11T14:22:13;100305.06;;;9.20;41.44
40315;BME280;26021;45.640;11.302;2023-02-11T14:27:28;100300.22;;;9.05;41.83
40315;BME280;26021;45.640;11.302;2023-02-11T14:43:42;100281.38;;;8.85;42.56
40315;BME280;26021;45.640;11.302;2023-02-11T14:46:10;100288.28;;;8.88;42.63
40315;BME280;26021;45.640;11.302;2023-02-11T14:48:38;100233.72;;;8.50;43.85
40315;BME280;26021;45.640;11.302;2023-02-11T14:51:12;100291.22;;;8.85;43.48
40315;BME280;26021;45.640;11.302;2023-02-11T14:53:43;100288.47;;;8.75;43.58
40315;BME280;26021;45.640;11.302;2023-02-11T14:56:19;100271.56;;;8.65;43.89
40315;BME280;26021;45.640;11.302;2023-02-11T14:58:46;100282.88;;;8.57;44.40
40315;BME280;26021;45.640;11.302;2023-02-11T15:01:34;100273.25;;;8.45;44.87
40315;BME280;26021;45.640;11.302;2023-02-11T15:04:04;100218.31;;;8.22;44.97